Terminal Aerodrome Forecast
Issued by NWS Jackson, MS

Home | Current Version | Previous Version | Text Only | Print | Product List | Glossary On
Versions: 1 2 3 4 5 6 7 8 9 10 11 12 13 14 15 16 17 18 19 20
000
FTUS44 KMEG 010521
TAFTUP
TAF
KTUP 010521Z 0106/0206 VRB03KT P6SM VCSH SCT250
      TEMPO 0110/0113 4SM BR
     FM011400 26005KT P6SM BKN050 BKN120
     FM012300 28005KT P6SM VCTS OVC050CB
      TEMPO 0201/0203 -TSRA=

USA.gov is the U.S. government's official web portal to all federal, state and local government web resources and services.